Swift Ace — C6XB8 — position and weather

sailwx.info

Track history (hours):
 
Tides and Currents Weather Stations Pressure Air Temp Water Temp Dewpoint Dewpoint Depression Visibility Wind Speed Wind Dir Waves Ship Positions

Swift Ace

Last reported at 2015-Jan-29 23:04 UTC. Time now 2015-Mar-01 12:35 UTC.
Position N 34°39' E 138°15'.
Warning: this ship's position is 30 days out of date.

Length 200 m; draft 9.1 m.

Type: Cargo ship. MMSI: 311004900.

Date/timePositionNaut miles runAvg speedWind from/ knotsBaromVisibWave heightAir tempDewpointWater temp
2015-Jan-29 23:04N 34°39' E 138°15'47 5.9
2015-Jan-29 15:03N 34°46' E 139°11'8 9.8
2015-Jan-29 14:14N 34°52' E 139°18'7 9.1
2015-Jan-29 13:27N 34°57' E 139°24'9 9.6
2015-Jan-29 12:33N 35°01' E 139°33'1010.5
2015-Jan-29 11:33N 35°07' E 139°44'1110.9
2015-Jan-29 10:33N 35°18' E 139°44'1110.6
2015-Jan-29 09:33N 35°28' E 139°41'0 0.4
2015-Jan-29 08:31N 35°28' E 139°41'0 0.0
2015-Jan-29 07:31N 35°28' E 139°41'0 0.0
2015-Jan-29 06:31N 35°28' E 139°41'0 0.0
2015-Jan-29 05:31N 35°28' E 139°41'0 0.0
2015-Jan-29 04:31N 35°28' E 139°41'0 0.0
2015-Jan-29 03:31N 35°28' E 139°41'0 0.0
2015-Jan-29 02:31N 35°28' E 139°41'0 0.0
2015-Jan-29 01:31N 35°28' E 139°41'0 0.0
2015-Jan-29 00:31N 35°28' E 139°41'0 0.0
2015-Jan-28 23:31N 35°28' E 139°41'0 0.0
2015-Jan-28 22:31N 35°28' E 139°41'2 2.3
2015-Jan-28 21:34N 35°27' E 139°43'10 9.7
2015-Jan-28 20:33N 35°17' E 139°45'1110.6
2015-Jan-28 19:33N 35°07' E 139°46'1111.1
2015-Jan-28 18:33N 34°56' E 139°42'1312.9
2015-Jan-28 17:31N 34°44' E 139°35'  
2015-Jan-26 11:13N 34°44' E 139°39'1116.4
2015-Jan-26 10:33N 34°55' E 139°39'1615.7
2015-Jan-26 09:33N 35°10' E 139°45'1111.3
2015-Jan-26 08:33N 35°21' E 139°42'5 4.3
2015-Jan-26 07:31N 35°25' E 139°41'0 0.0
2015-Jan-26 06:31N 35°25' E 139°41'0 0.0
2015-Jan-26 05:31N 35°25' E 139°41'0 0.0
2015-Jan-26 04:31N 35°25' E 139°41'0 0.0
2015-Jan-26 03:31N 35°25' E 139°41'0 0.0
2015-Jan-26 02:31N 35°25' E 139°41'0 0.0
2015-Jan-26 01:31N 35°25' E 139°41'0 0.0
2015-Jan-26 00:31N 35°25' E 139°41'0 0.0
2015-Jan-25 23:31N 35°25' E 139°41'0 0.1
2015-Jan-25 22:33N 35°25' E 139°41'7 7.1
2015-Jan-25 21:33N 35°19' E 139°44'1111.0
2015-Jan-25 20:33N 35°08' E 139°47'1110.7
2015-Jan-25 19:33N 34°58' E 139°42'1211.4
2015-Jan-25 18:31N 34°47' E 139°37'  
2015-Jan-20 11:09N 32°04' E 131°55'  
Track history (hours):
 
Tides and Currents Weather Stations Pressure Air Temp Water Temp Dewpoint Dewpoint Depression Visibility Wind Speed Wind Dir Waves Ship Positions

Swift Ace

Last reported at 2015-Jan-29 23:04 UTC. Time now 2015-Mar-01 12:35 UTC.
Position N 34°39' E 138°15'.
Warning: this ship's position is 30 days out of date.

Length 200 m; draft 9.1 m.

Type: Cargo ship. MMSI: 311004900.

Date/timePositionNaut miles runAvg speedWind from/ knotsBaromVisibWave heightAir tempDewpointWater temp
2015-Jan-29 23:04N 34°39' E 138°15'47 5.9
2015-Jan-29 15:03N 34°46' E 139°11'8 9.8
2015-Jan-29 14:14N 34°52' E 139°18'7 9.1
2015-Jan-29 13:27N 34°57' E 139°24'9 9.6
2015-Jan-29 12:33N 35°01' E 139°33'1010.5
2015-Jan-29 11:33N 35°07' E 139°44'1110.9
2015-Jan-29 10:33N 35°18' E 139°44'1110.6
2015-Jan-29 09:33N 35°28' E 139°41'0 0.4
2015-Jan-29 08:31N 35°28' E 139°41'0 0.0
2015-Jan-29 07:31N 35°28' E 139°41'0 0.0
2015-Jan-29 06:31N 35°28' E 139°41'0 0.0
2015-Jan-29 05:31N 35°28' E 139°41'0 0.0
2015-Jan-29 04:31N 35°28' E 139°41'0 0.0
2015-Jan-29 03:31N 35°28' E 139°41'0 0.0
2015-Jan-29 02:31N 35°28' E 139°41'0 0.0
2015-Jan-29 01:31N 35°28' E 139°41'0 0.0
2015-Jan-29 00:31N 35°28' E 139°41'0 0.0
2015-Jan-28 23:31N 35°28' E 139°41'0 0.0
2015-Jan-28 22:31N 35°28' E 139°41'2 2.3
2015-Jan-28 21:34N 35°27' E 139°43'10 9.7
2015-Jan-28 20:33N 35°17' E 139°45'1110.6
2015-Jan-28 19:33N 35°07' E 139°46'1111.1
2015-Jan-28 18:33N 34°56' E 139°42'1312.9
2015-Jan-28 17:31N 34°44' E 139°35'  
2015-Jan-26 11:13N 34°44' E 139°39'1116.4
2015-Jan-26 10:33N 34°55' E 139°39'1615.7
2015-Jan-26 09:33N 35°10' E 139°45'1111.3
2015-Jan-26 08:33N 35°21' E 139°42'5 4.3
2015-Jan-26 07:31N 35°25' E 139°41'0 0.0
2015-Jan-26 06:31N 35°25' E 139°41'0 0.0
2015-Jan-26 05:31N 35°25' E 139°41'0 0.0
2015-Jan-26 04:31N 35°25' E 139°41'0 0.0
2015-Jan-26 03:31N 35°25' E 139°41'0 0.0
2015-Jan-26 02:31N 35°25' E 139°41'0 0.0
2015-Jan-26 01:31N 35°25' E 139°41'0 0.0
2015-Jan-26 00:31N 35°25' E 139°41'0 0.0
2015-Jan-25 23:31N 35°25' E 139°41'0 0.1
2015-Jan-25 22:33N 35°25' E 139°41'7 7.1
2015-Jan-25 21:33N 35°19' E 139°44'1111.0
2015-Jan-25 20:33N 35°08' E 139°47'1110.7
2015-Jan-25 19:33N 34°58' E 139°42'1211.4
2015-Jan-25 18:31N 34°47' E 139°37'  
2015-Jan-20 11:09N 32°04' E 131°55'  

Dump ship's entire track history